Time;durP1;ratioP1;P1;durP2;ratioP2;P2;SDS_P1;SDS_P2;PMS_P1;PMS_P2;Temp;Humidity;BMP_temperature;BMP_pressure;BME280_temperature;BME280_humidity;BME280_pressure;Samples;Min_cycle;Max_cycle;Signal;HPM_P1;HPM_P2
2023/04/02 00:00:04;;;;;;;;;9.67;9.00;;;;;13.13;100.00;100853.41;5079312;28;45798;-79
2023/04/02 00:02:31;;;;;;;;;10.33;10.00;;;;;13.02;100.00;100833.34;5079414;28;45236;-78
2023/04/02 00:05:18;;;;;;;;;8.33;7.67;;;;;13.06;100.00;100852.50;5079737;28;45480;-77
2023/04/02 00:07:52;;;;;;;;;8.00;7.67;;;;;13.06;100.00;100850.66;5078965;28;45470;-78
2023/04/02 00:10:38;;;;;;;;;9.67;9.67;;;;;13.06;100.00;100847.16;5079069;28;46192;-78
2023/04/02 00:13:10;;;;;;;;;9.00;9.00;;;;;13.03;100.00;100856.38;5061024;28;45506;-78
2023/04/02 00:15:40;;;;;;;;;8.67;8.67;;;;;12.98;100.00;100848.94;5061071;28;45249;-78
2023/04/02 00:18:08;;;;;;;;;12.00;9.33;;;;;13.03;100.00;100850.22;5079227;28;45509;-78
2023/04/02 00:20:40;;;;;;;;;11.33;11.00;;;;;13.08;100.00;100859.28;5078834;28;45274;-78
2023/04/02 00:23:10;;;;;;;;;8.33;8.00;;;;;13.15;100.00;100859.38;5079060;28;45390;-78
2023/04/02 00:25:41;;;;;;;;;10.67;10.33;;;;;13.09;100.00;100852.13;5078735;28;45210;-79
2023/04/02 00:28:15;;;;;;;;;7.67;7.67;;;;;13.06;100.00;100860.50;5077578;28;46132;-79
2023/04/02 00:30:51;;;;;;;;;12.00;10.67;;;;;13.04;100.00;100846.50;5078446;28;45404;-78
2023/04/02 00:33:20;;;;;;;;;10.67;9.67;;;;;13.04;100.00;100862.53;5062080;28;45480;-79
2023/04/02 00:35:47;;;;;;;;;12.33;11.00;;;;;13.04;100.00;100868.69;5064093;28;45256;-80
2023/04/02 00:38:24;;;;;;;;;14.00;12.50;;;;;13.03;100.00;100860.88;5064274;28;47060;-79
2023/04/02 00:40:51;;;;;;;;;13.67;11.67;;;;;13.04;100.00;100871.38;5082518;28;45402;-79
2023/04/02 00:43:19;;;;;;;;;16.00;16.00;;;;;13.00;100.00;100856.75;5064050;28;45791;-78
2023/04/02 00:45:49;;;;;;;;;9.00;9.00;;;;;12.94;100.00;100871.66;5081486;28;45193;-76
2023/04/02 00:48:30;;;;;;;;;14.33;13.67;;;;;12.80;100.00;100877.84;5082203;28;45504;-77
2023/04/02 00:51:00;;;;;;;;;11.00;10.00;;;;;12.61;100.00;100872.06;5082502;28;45456;-76
2023/04/02 00:53:30;;;;;;;;;8.00;8.00;;;;;12.58;100.00;100875.09;5063889;28;46008;-77
2023/04/02 00:55:57;;;;;;;;;7.33;7.33;;;;;12.58;100.00;100875.09;5063827;28;45384;-77
2023/04/02 00:58:26;;;;;;;;;12.67;9.67;;;;;12.63;100.00;100878.88;5064298;28;45464;-77
2023/04/02 01:00:51;;;;;;;;;9.33;9.00;;;;;12.57;100.00;100884.13;5082295;28;46185;-77
2023/04/02 01:03:17;;;;;;;;;9.00;8.33;;;;;12.54;100.00;100884.47;5080932;28;45371;-77
2023/04/02 01:05:50;;;;;;;;;7.67;7.67;;;;;12.51;100.00;100885.66;5081823;28;45434;-77
2023/04/02 01:08:24;;;;;;;;;6.33;6.33;;;;;12.56;100.00;100898.44;5082189;28;45662;-76
2023/04/02 01:11:14;;;;;;;;;6.00;6.00;;;;;12.58;100.00;100889.28;5081759;28;45355;-78
2023/04/02 01:13:57;;;;;;;;;7.33;6.33;;;;;12.59;100.00;100890.91;5082198;28;46148;-76
2023/04/02 01:16:45;;;;;;;;;7.00;6.00;;;;;12.63;100.00;100880.69;5063970;28;45484;-77
2023/04/02 01:19:34;;;;;;;;;10.00;8.00;;;;;12.68;100.00;100891.66;5082035;28;45235;-77
2023/04/02 01:22:14;;;;;;;;;5.33;5.33;;;;;12.67;100.00;100890.00;5081185;28;45554;-77
2023/04/02 01:24:42;;;;;;;;;6.67;5.67;;;;;12.71;100.00;100901.09;5063396;28;46142;-77
2023/04/02 01:27:27;;;;;;;;;9.33;9.33;;;;;12.67;100.00;100906.00;5063473;28;45280;-77
2023/04/02 01:29:56;;;;;;;;;6.33;6.00;;;;;12.64;100.00;100898.38;5081618;28;45439;-77
2023/04/02 01:32:25;;;;;;;;;7.00;7.00;;;;;12.62;100.00;100903.03;5063747;28;46366;-77
2023/04/02 01:34:51;;;;;;;;;5.33;5.33;;;;;12.58;100.00;100896.44;5063817;28;45242;-77
2023/04/02 01:37:38;;;;;;;;;7.00;6.33;;;;;12.66;100.00;100912.31;5082437;28;45292;-76
2023/04/02 01:40:27;;;;;;;;;7.00;7.00;;;;;12.62;100.00;100908.38;5081286;28;46479;-77
2023/04/02 01:43:02;;;;;;;;;6.33;6.33;;;;;12.62;100.00;100909.22;5063413;28;48568;-76
2023/04/02 01:45:28;;;;;;;;;5.67;5.67;;;;;12.37;100.00;100868.66;5068952;28;45478;-76
2023/04/02 01:47:54;;;;;;;;;5.00;5.00;;;;;12.72;100.00;100910.78;5082074;28;45268;-78
2023/04/02 01:50:31;;;;;;;;;3.00;3.00;;;;;12.57;100.00;100916.13;5063707;28;46219;-76
2023/04/02 01:53:00;;;;;;;;;5.67;4.67;;;;;12.45;100.00;100905.88;5063587;28;47462;-76
2023/04/02 01:55:32;;;;;;;;;4.00;4.00;;;;;12.51;100.00;100920.31;5081657;28;45390;-76
2023/04/02 01:57:59;;;;;;;;;3.00;3.00;;;;;12.41;100.00;100903.75;5063593;28;45491;-77
2023/04/02 02:00:27;;;;;;;;;4.00;4.00;;;;;12.36;100.00;100909.63;5081313;28;45344;-76
2023/04/02 02:02:52;;;;;;;;;4.00;3.00;;;;;12.33;100.00;100920.69;5062765;28;48019;-76
2023/04/02 02:05:21;;;;;;;;;4.00;4.00;;;;;12.32;100.00;100924.34;5062808;28;46258;-76
2023/04/02 02:07:48;;;;;;;;;2.00;2.00;;;;;12.23;100.00;100921.75;5081805;28;45598;-77
2023/04/02 02:10:16;;;;;;;;;4.00;3.33;;;;;12.29;100.00;100924.69;5081223;28;45513;-77
2023/04/02 02:12:43;;;;;;;;;2.67;2.67;;;;;12.26;100.00;100936.56;5081144;28;46527;-77
2023/04/02 02:15:18;;;;;;;;;1.67;1.67;;;;;12.21;100.00;100933.63;5071323;28;45726;-76
2023/04/02 02:17:43;;;;;;;;;3.00;3.00;;;;;12.14;100.00;100914.00;5081229;28;45291;-77
2023/04/02 02:20:11;;;;;;;;;1.00;1.00;;;;;12.20;100.00;100938.09;5062958;28;45425;-76
2023/04/02 02:22:45;;;;;;;;;2.00;2.00;;;;;12.17;100.00;100941.13;5081010;28;45365;-76
2023/04/02 02:25:16;;;;;;;;;4.00;3.00;;;;;12.07;100.00;100932.56;5080538;28;45266;-77
2023/04/02 02:27:47;;;;;;;;;3.00;3.00;;;;;12.04;100.00;100941.72;5080976;28;45489;-75
2023/04/02 02:30:18;;;;;;;;;2.00;2.00;;;;;12.10;100.00;100945.53;5080796;28;45340;-76
2023/04/02 02:32:54;;;;;;;;;2.33;2.33;;;;;12.14;100.00;100953.97;5062520;28;46534;-76
2023/04/02 02:35:25;;;;;;;;;2.00;2.00;;;;;12.05;100.00;100937.19;5080841;28;45375;-76
2023/04/02 02:38:02;;;;;;;;;3.00;2.00;;;;;12.09;100.00;100951.88;5063157;28;45407;-76
2023/04/02 02:40:37;;;;;;;;;5.00;4.00;;;;;12.08;100.00;100950.19;5081109;28;45324;-76
2023/04/02 02:43:09;;;;;;;;;2.33;2.00;;;;;12.08;100.00;100960.84;5080730;28;45343;-76
2023/04/02 02:45:37;;;;;;;;;1.67;1.67;;;;;12.04;100.00;100948.88;5080941;28;45297;-76
2023/04/02 02:48:08;;;;;;;;;3.00;2.33;;;;;12.04;100.00;100957.69;5080979;28;45361;-76
2023/04/02 02:50:34;;;;;;;;;2.00;2.00;;;;;12.02;100.00;100949.03;5080523;28;45371;-76
2023/04/02 02:53:03;;;;;;;;;0.33;0.33;;;;;12.09;100.00;100970.53;5080648;27;46461;-76
2023/04/02 02:55:36;;;;;;;;;2.00;2.00;;;;;12.15;100.00;100976.97;5061796;28;45395;-76
2023/04/02 02:58:09;;;;;;;;;4.33;4.00;;;;;12.16;100.00;100982.13;5080540;28;45270;-76
2023/04/02 03:00:36;;;;;;;;;2.00;2.00;;;;;12.13;100.00;100977.16;5062177;28;46025;-76
2023/04/02 03:03:07;;;;;;;;;3.67;3.67;;;;;12.15;100.00;100992.94;5061797;28;47518;-75
2023/04/02 03:05:33;;;;;;;;;3.00;3.00;;;;;12.02;100.00;100982.84;5080346;28;45327;-75
2023/04/02 03:08:02;;;;;;;;;5.33;3.67;;;;;12.07;100.00;100988.50;5078613;28;45435;-76
2023/04/02 03:10:38;;;;;;;;;4.67;4.00;;;;;12.08;100.00;100991.00;5080031;28;45410;-77
2023/04/02 03:13:24;;;;;;;;;4.33;4.00;;;;;12.06;100.00;100989.50;5067531;28;45286;-76
2023/04/02 03:16:00;;;;;;;;;4.33;2.67;;;;;12.10;100.00;100996.94;5062629;28;45398;-76
2023/04/02 03:18:44;;;;;;;;;3.33;3.33;;;;;11.98;100.00;100977.06;5080214;28;45558;-76
2023/04/02 03:21:39;;;;;;;;;4.00;4.00;;;;;12.09;100.00;100994.50;5061573;28;46034;-76
2023/04/02 03:24:26;;;;;;;;;5.67;4.33;;;;;12.14;100.00;100992.13;5057929;28;45905;-76
2023/04/02 03:26:59;;;;;;;;;6.00;6.00;;;;;12.12;100.00;100996.78;5061681;28;45360;-76
2023/04/02 03:29:28;;;;;;;;;4.67;4.67;;;;;12.00;100.00;100991.84;5079955;28;45390;-75
2023/04/02 03:31:58;;;;;;;;;4.67;4.67;;;;;12.06;100.00;101002.81;5079728;28;45596;-76
2023/04/02 03:34:32;;;;;;;;;4.33;4.33;;;;;12.13;100.00;101011.78;5079847;28;46125;-77
2023/04/02 03:37:06;;;;;;;;;4.00;4.00;;;;;12.08;100.00;101012.31;5078000;28;45679;-76
2023/04/02 03:40:36;;;;;;;;;6.67;5.67;;;;;12.10;100.00;101014.78;5079737;28;45405;-75
2023/04/02 03:43:13;;;;;;;;;4.00;4.00;;;;;12.06;100.00;101032.94;4984574;28;45469;-77
2023/04/02 03:45:43;;;;;;;;;4.67;4.67;;;;;12.09;100.00;101029.94;5069268;28;46372;-77
2023/04/02 03:48:17;;;;;;;;;6.33;6.33;;;;;12.07;100.00;101029.31;5076141;28;45261;-79
2023/04/02 03:50:48;;;;;;;;;6.00;6.00;;;;;12.05;100.00;101041.09;5066165;28;45334;-77
2023/04/02 03:53:14;;;;;;;;;7.00;6.00;;;;;11.92;100.00;101018.56;5074679;28;47498;-78
2023/04/02 03:55:41;;;;;;;;;5.67;5.67;;;;;11.95;100.00;101036.84;5071076;28;46372;-77
2023/04/02 03:58:22;;;;;;;;;6.00;6.00;;;;;11.97;100.00;101041.97;5079301;28;45332;-76
2023/04/02 04:00:53;;;;;;;;;7.67;6.33;;;;;12.02;100.00;101041.44;5061120;28;45439;-76
2023/04/02 04:03:30;;;;;;;;;7.33;7.00;;;;;12.00;100.00;101044.28;5079524;28;45471;-77
2023/04/02 04:06:00;;;;;;;;;8.00;8.00;;;;;12.00;100.00;101041.63;5078986;28;45519;-78
2023/04/02 04:08:42;;;;;;;;;10.33;8.67;;;;;12.02;100.00;101044.94;5059585;28;45429;-77
2023/04/02 04:11:14;;;;;;;;;8.67;8.67;;;;;11.98;100.00;101035.66;5061200;28;45258;-77
2023/04/02 04:13:48;;;;;;;;;8.33;8.33;;;;;11.96;100.00;101037.66;5079192;28;45352;-77
2023/04/02 04:16:25;;;;;;;;;14.33;12.00;;;;;11.82;100.00;101047.25;5067160;28;45238;-77
2023/04/02 04:19:02;;;;;;;;;11.33;11.33;;;;;11.86;100.00;101064.53;5061529;28;45299;-78
2023/04/02 04:21:28;;;;;;;;;9.67;9.67;;;;;11.71;100.00;101046.59;5079438;28;45481;-78
2023/04/02 04:23:54;;;;;;;;;12.67;12.00;;;;;11.73;100.00;101071.25;5065108;28;45336;-76
2023/04/02 04:26:23;;;;;;;;;8.67;7.00;;;;;11.74;100.00;101069.41;5060776;28;46846;-79
2023/04/02 04:29:18;;;;;;;;;10.33;9.33;;;;;11.74;100.00;101078.22;5078444;28;45218;-79
2023/04/02 04:31:48;;;;;;;;;8.67;7.33;;;;;11.59;100.00;101056.81;5079020;28;45456;-79
2023/04/02 04:34:19;;;;;;;;;7.33;7.33;;;;;11.72;100.00;101077.56;5079098;28;45297;-77
2023/04/02 04:36:54;;;;;;;;;12.33;12.33;;;;;11.75;100.00;101081.72;5078476;27;45210;-78
2023/04/02 04:39:28;;;;;;;;;10.00;9.67;;;;;11.72;100.00;101074.06;5078915;28;45484;-78
2023/04/02 04:41:56;;;;;;;;;12.33;11.67;;;;;11.77;100.00;101077.06;5078864;28;45186;-77
2023/04/02 04:44:24;;;;;;;;;13.67;12.00;;;;;11.74;100.00;101083.53;5078865;28;45512;-78
2023/04/02 04:47:02;;;;;;;;;14.67;12.33;;;;;11.65;100.00;101081.09;5078492;28;46646;-77
2023/04/02 04:49:48;;;;;;;;;12.67;12.00;;;;;11.77;100.00;101098.38;5078776;28;45230;-78
2023/04/02 04:52:17;;;;;;;;;15.00;14.00;;;;;11.77;100.00;101106.34;5078783;28;45368;-78
2023/04/02 04:54:45;;;;;;;;;17.00;14.67;;;;;11.70;100.00;101103.53;5078295;28;45465;-77
2023/04/02 04:57:29;;;;;;;;;14.33;14.00;;;;;11.73;100.00;101119.16;5078689;28;46335;-78
2023/04/02 05:00:11;;;;;;;;;14.00;11.67;;;;;11.75;100.00;101124.31;5060410;28;45926;-78
2023/04/02 05:02:47;;;;;;;;;12.33;10.67;;;;;11.61;100.00;101100.06;5078249;28;45346;-78
2023/04/02 05:05:20;;;;;;;;;12.33;11.00;;;;;11.66;100.00;101118.19;5078553;28;45520;-78
2023/04/02 05:07:51;;;;;;;;;15.00;15.00;;;;;11.70;100.00;101124.84;5078322;28;45326;-78
2023/04/02 05:10:41;;;;;;;;;14.67;13.67;;;;;11.67;100.00;101127.03;5078204;28;45303;-78
2023/04/02 05:13:16;;;;;;;;;14.00;10.67;;;;;11.70;100.00;101135.47;5060472;28;45335;-76
2023/04/02 05:15:52;;;;;;;;;14.67;14.33;;;;;11.66;100.00;101134.19;5078074;28;45268;-77
2023/04/02 05:18:24;;;;;;;;;11.67;11.33;;;;;11.65;100.00;101143.16;5078237;28;46228;-77
2023/04/02 05:21:02;;;;;;;;;11.33;11.33;;;;;11.51;100.00;101133.22;5081424;28;45315;-77
2023/04/02 05:23:29;;;;;;;;;14.67;12.67;;;;;11.57;100.00;101154.66;5081548;28;45399;-77
2023/04/02 05:26:01;;;;;;;;;19.67;15.33;;;;;11.59;100.00;101160.63;5081941;28;45324;-77
2023/04/02 05:28:47;;;;;;;;;15.00;14.00;;;;;11.58;100.00;101161.66;5063149;28;47119;-77
2023/04/02 05:31:19;;;;;;;;;15.67;13.00;;;;;11.60;100.00;101167.66;5081911;28;45294;-78
2023/04/02 05:33:47;;;;;;;;;14.67;12.33;;;;;11.49;100.00;101150.19;5081808;28;45402;-77
2023/04/02 05:36:26;;;;;;;;;17.33;17.00;;;;;11.56;100.00;101169.00;5081356;28;45489;-77
2023/04/02 05:38:53;;;;;;;;;16.67;13.67;;;;;11.55;100.00;101179.81;5062988;28;47580;-78
2023/04/02 05:41:37;;;;;;;;;14.33;13.33;;;;;11.47;100.00;101175.31;5081532;28;45410;-77
2023/04/02 05:44:14;;;;;;;;;17.67;13.33;;;;;11.47;100.00;101172.66;5063391;28;45395;-77
2023/04/02 05:46:48;;;;;;;;;16.00;16.00;;;;;11.51;100.00;101181.97;5081182;28;45287;-78
2023/04/02 05:49:24;;;;;;;;;12.00;12.00;;;;;11.54;100.00;101178.13;5081353;28;45316;-77
2023/04/02 05:51:54;;;;;;;;;13.00;12.33;;;;;11.33;100.00;101145.75;5081279;28;45272;-77
2023/04/02 05:54:30;;;;;;;;;17.00;16.33;;;;;11.82;100.00;101167.91;5081292;28;45374;-77
2023/04/02 05:57:10;;;;;;;;;13.67;13.00;;;;;11.73;100.00;101179.56;5081364;28;45364;-77
2023/04/02 05:59:58;;;;;;;;;15.33;14.33;;;;;11.66;100.00;101181.25;5080938;28;46434;-79
2023/04/02 06:02:43;;;;;;;;;17.00;14.33;;;;;11.62;100.00;101167.47;5080981;28;45409;-77
2023/04/02 06:05:20;;;;;;;;;13.67;13.00;;;;;11.74;100.00;101199.88;5062819;28;45403;-78
2023/04/02 06:07:52;;;;;;;;;14.00;13.67;;;;;11.76;100.00;101197.88;5081062;28;45355;-77
2023/04/02 06:10:22;;;;;;;;;18.67;14.00;;;;;11.77;100.00;101198.72;5069498;28;45454;-76
2023/04/02 06:13:02;;;;;;;;;19.00;15.67;;;;;11.86;100.00;101206.50;5076245;28;45500;-79
2023/04/02 06:15:29;;;;;;;;;21.00;20.00;;;;;11.81;100.00;101202.69;5062699;28;45344;-78
2023/04/02 06:18:04;;;;;;;;;19.00;17.33;;;;;11.80;100.00;101214.34;5079414;28;46427;-77
2023/04/02 06:20:30;;;;;;;;;19.00;17.67;;;;;11.71;100.00;101203.69;5062221;28;47186;-76
2023/04/02 06:23:05;;;;;;;;;23.33;20.00;;;;;11.84;100.00;101215.66;5080780;28;45402;-77
2023/04/02 06:25:58;;;;;;;;;13.33;13.33;;;;;11.78;100.00;101200.38;5080573;28;45449;-75
2023/04/02 06:28:36;;;;;;;;;31.67;30.33;;;;;11.81;100.00;101208.00;5071642;28;45282;-78
2023/04/02 06:31:14;;;;;;;;;17.00;14.67;;;;;11.87;100.00;101218.81;5079361;28;45367;-80
2023/04/02 06:33:39;;;;;;;;;20.00;18.67;;;;;11.82;100.00;101215.84;5079756;28;45415;-82
2023/04/02 06:36:08;;;;;;;;;22.33;21.00;;;;;11.81;100.00;101224.00;5080673;28;45601;-80
2023/04/02 06:38:35;;;;;;;;;20.00;18.00;;;;;11.71;100.00;101222.34;5078924;28;46393;-80
2023/04/02 06:41:09;;;;;;;;;26.67;25.33;;;;;11.84;100.00;101242.28;5079067;28;48520;-81
2023/04/02 06:43:41;;;;;;;;;21.33;20.33;;;;;11.86;100.00;101245.63;5078876;28;46090;-81
2023/04/02 06:46:46;;;;;;;;;19.00;19.00;;;;;11.86;100.00;101251.78;5079438;28;45565;-82
2023/04/02 06:49:22;;;;;;;;;21.00;19.33;;;;;11.90;100.00;101256.75;5061029;28;47118;-81
2023/04/02 06:51:51;;;;;;;;;19.67;19.00;;;;;11.87;100.00;101252.59;5080161;27;45774;-82
2023/04/02 06:54:17;;;;;;;;;22.00;21.00;;;;;11.90;100.00;101267.41;5080830;28;45394;-80
2023/04/02 06:56:51;;;;;;;;;20.33;19.00;;;;;11.83;100.00;101259.28;5080818;27;45294;-80
2023/04/02 06:59:18;;;;;;;;;22.00;21.67;;;;;11.93;100.00;101275.06;5073305;28;45407;-83
2023/04/02 07:02:15;;;;;;;;;23.67;21.67;;;;;11.89;100.00;101268.41;5068161;28;45329;-81
2023/04/02 07:04:40;;;;;;;;;19.00;18.67;;;;;11.87;100.00;101273.91;5060507;28;45418;-79
2023/04/02 07:07:06;;;;;;;;;15.67;15.33;;;;;11.86;100.00;101280.25;5061902;28;45391;-79
2023/04/02 07:09:31;;;;;;;;;27.67;22.67;;;;;11.86;100.00;101272.25;5077347;28;45236;-81
2023/04/02 07:11:57;;;;;;;;;22.33;22.00;;;;;11.74;100.00;101264.59;5058752;28;47138;-80
2023/04/02 07:14:22;;;;;;;;;24.67;18.33;;;;;11.69;100.00;101266.13;5059988;28;45226;-81
2023/04/02 07:16:47;;;;;;;;;27.00;24.00;;;;;11.69;100.00;101266.97;5069132;28;45398;-79
2023/04/02 07:19:21;;;;;;;;;26.33;25.00;;;;;11.76;100.00;101291.06;5061899;28;45448;-81
2023/04/02 07:21:47;;;;;;;;;25.67;23.33;;;;;11.78;100.00;101296.22;5059818;28;45475;-78
2023/04/02 07:24:13;;;;;;;;;25.33;22.00;;;;;11.79;100.00;101304.06;5041515;28;45308;-83
2023/04/02 07:26:38;;;;;;;;;26.67;26.00;;;;;11.73;100.00;101288.75;5054440;28;45390;-81
2023/04/02 07:29:08;;;;;;;;;26.67;24.00;;;;;11.84;100.00;101316.88;5060686;28;46937;-79
2023/04/02 07:31:33;;;;;;;;;24.33;21.33;;;;;11.80;100.00;101307.56;5066491;28;45268;-79
2023/04/02 07:33:59;;;;;;;;;24.00;23.33;;;;;11.77;100.00;101307.91;5063291;28;46646;-79
2023/04/02 07:36:27;;;;;;;;;20.00;20.00;;;;;11.76;100.00;101308.91;5059659;28;45361;-81
2023/04/02 07:38:52;;;;;;;;;24.00;21.00;;;;;11.84;100.00;101327.53;5072103;28;45479;-80
2023/04/02 07:41:18;;;;;;;;;24.67;24.67;;;;;11.83;100.00;101329.34;5059187;28;45421;-80
2023/04/02 07:43:44;;;;;;;;;20.67;18.33;;;;;11.82;100.00;101332.19;5057779;27;45426;-79
2023/04/02 07:46:11;;;;;;;;;24.33;22.33;;;;;11.76;100.00;101331.03;5066950;28;45318;-80
2023/04/02 07:48:36;;;;;;;;;18.67;18.67;;;;;11.79;100.00;101327.22;5065368;28;45391;-80
2023/04/02 07:51:02;;;;;;;;;20.67;20.67;;;;;11.70;100.00;101319.22;5071025;28;45396;-81
2023/04/02 07:53:33;;;;;;;;;19.33;18.00;;;;;11.79;100.00;101333.34;5077895;28;45405;-80
2023/04/02 07:56:00;;;;;;;;;20.00;19.67;;;;;11.76;100.00;101324.88;5075530;28;45415;-80
2023/04/02 07:58:27;;;;;;;;;28.67;25.00;;;;;11.84;100.00;101357.66;5074868;28;45354;-80
2023/04/02 08:00:52;;;;;;;;;26.00;21.00;;;;;11.80;100.00;101347.50;5040042;28;48518;-80
2023/04/02 08:03:17;;;;;;;;;19.00;18.33;;;;;11.79;100.00;101357.31;5047421;28;46101;-82
2023/04/02 08:05:49;;;;;;;;;20.33;18.00;;;;;11.70;100.00;101339.69;5070442;28;45398;-81
2023/04/02 08:08:14;;;;;;;;;21.33;17.67;;;;;11.82;100.00;101366.81;5077583;28;47426;-80
2023/04/02 08:10:40;;;;;;;;;20.00;18.00;;;;;11.68;100.00;101342.53;5060482;28;47173;-81
2023/04/02 08:13:05;;;;;;;;;16.33;14.67;;;;;11.76;100.00;101362.16;5078609;28;48289;-79
2023/04/02 08:15:30;;;;;;;;;18.67;18.67;;;;;11.76;100.00;101356.84;5077930;28;49537;-79
2023/04/02 08:17:56;;;;;;;;;30.00;29.00;;;;;11.85;100.00;101377.13;5078857;28;45358;-80
2023/04/02 08:20:21;;;;;;;;;26.67;25.33;;;;;11.84;100.00;101364.81;5060451;28;47217;-79
2023/04/02 08:22:47;;;;;;;;;21.00;21.00;;;;;11.84;100.00;101370.13;5060262;28;46109;-79
2023/04/02 08:25:13;;;;;;;;;22.67;16.33;;;;;11.85;100.00;101377.13;5067069;28;45285;-79
2023/04/02 08:27:38;;;;;;;;;46.75;36.75;;;;;11.79;100.00;101361.84;5078693;28;45664;-80
2023/04/02 08:30:06;;;;;;;;;25.67;24.33;;;;;11.84;100.00;101375.47;5059905;28;47518;-79
2023/04/02 08:32:32;;;;;;;;;24.00;22.67;;;;;11.84;100.00;101383.44;5070586;28;45736;-80
2023/04/02 08:34:57;;;;;;;;;19.67;15.00;;;;;11.89;100.00;101383.78;5058922;28;45387;-79
2023/04/02 08:37:22;;;;;;;;;25.00;23.33;;;;;11.89;100.00;101391.78;5078835;28;45656;-80
2023/04/02 08:39:48;;;;;;;;;23.33;22.33;;;;;11.97;100.00;101397.09;5070739;28;46168;-81
2023/04/02 08:42:25;;;;;;;;;23.33;22.33;;;;;12.03;100.00;101403.59;5067611;28;48179;-80
2023/04/02 08:45:17;;;;;;;;;16.00;15.67;;;;;12.05;100.00;101404.25;5043245;28;45500;-81
2023/04/02 08:47:46;;;;;;;;;16.67;16.67;;;;;12.04;100.00;101401.75;5078379;28;45405;-82
2023/04/02 08:50:26;;;;;;;;;23.00;22.00;;;;;12.07;100.00;101404.97;5078368;28;45397;-82
2023/04/02 08:52:52;;;;;;;;;23.00;23.00;;;;;12.06;100.00;101415.75;5078713;28;45268;-82
2023/04/02 08:55:21;;;;;;;;;19.67;17.67;;;;;12.06;100.00;101416.56;5081625;28;45806;-84
2023/04/02 08:57:59;;;;;;;;;26.33;24.00;;;;;11.96;100.00;101402.59;5068843;28;45540;-82
2023/04/02 09:00:38;;;;;;;;;18.00;16.33;;;;;12.07;100.00;101415.63;5061222;28;47595;-82
2023/04/02 09:03:16;;;;;;;;;20.33;19.33;;;;;11.95;100.00;101408.94;5071488;28;45379;-85
2023/04/02 09:05:43;;;;;;;;;17.33;16.67;;;;;12.10;100.00;101425.09;5080400;28;45346;-82
2023/04/02 09:08:18;;;;;;;;;36.33;32.00;;;;;12.08;100.00;101422.59;5078063;28;45437;-82
2023/04/02 09:10:58;;;;;;;;;18.00;17.33;;;;;12.06;100.00;101431.75;5068313;28;45662;-83
2023/04/02 09:13:26;;;;;;;;;18.67;13.33;;;;;12.11;100.00;101466.72;5060247;28;45504;-85
2023/04/02 09:16:02;;;;;;;;;19.67;19.67;;;;;12.15;100.00;101467.25;5042923;28;45409;-83
2023/04/02 09:18:30;;;;;;;;;17.33;14.67;;;;;12.11;100.00;101467.56;5061820;28;45522;-83
2023/04/02 09:20:56;;;;;;;;;17.00;16.00;;;;;12.06;100.00;101472.53;5043388;28;47100;-83
2023/04/02 09:23:24;;;;;;;;;14.33;13.00;;;;;11.98;100.00;101464.53;5061022;28;45261;-82
2023/04/02 09:25:51;;;;;;;;;19.00;15.67;;;;;11.99;100.00;101468.84;5063826;28;45387;-84
2023/04/02 09:28:19;;;;;;;;;19.00;19.00;;;;;11.98;100.00;101462.69;5063551;28;46930;-81
2023/04/02 09:31:17;;;;;;;;;21.33;20.33;;;;;12.13;100.00;101472.75;5074094;27;45495;-81
2023/04/02 09:33:48;;;;;;;;;19.33;18.00;;;;;12.11;100.00;101467.56;5065343;28;45358;-83
2023/04/02 09:36:18;;;;;;;;;24.67;23.33;;;;;12.16;100.00;101482.22;5081287;28;45503;-81
2023/04/02 09:39:05;;;;;;;;;19.33;15.67;;;;;12.15;100.00;101477.91;5076445;28;45565;-80
2023/04/02 09:41:33;;;;;;;;;24.00;22.00;;;;;12.14;100.00;101473.53;5059801;28;47310;-81
2023/04/02 09:44:22;;;;;;;;;18.00;17.00;;;;;12.05;100.00;101460.22;5065186;28;45337;-81
2023/04/02 09:47:24;;;;;;;;;21.00;21.00;;;;;12.09;100.00;101485.53;5060623;28;45529;-81
2023/04/02 09:49:50;;;;;;;;;20.00;17.67;;;;;11.94;100.00;101487.19;5044101;28;45518;-80
2023/04/02 09:52:20;;;;;;;;;20.67;20.67;;;;;11.99;100.00;101499.00;5042582;28;48257;-82
2023/04/02 09:55:07;;;;;;;;;18.67;16.00;;;;;11.96;100.00;101499.34;5048936;28;45509;-80
2023/04/02 09:57:32;;;;;;;;;22.33;21.67;;;;;11.99;100.00;101509.66;5061318;28;45305;-81
2023/04/02 10:00:25;;;;;;;;;16.00;14.00;;;;;12.07;100.00;101532.00;5063341;28;46106;-80
2023/04/02 10:03:16;;;;;;;;;18.00;18.00;;;;;12.00;100.00;101513.97;5082000;28;46092;-80
2023/04/02 10:05:43;;;;;;;;;23.00;22.00;;;;;12.06;100.00;101519.66;5070424;28;45462;-81
2023/04/02 10:08:25;;;;;;;;;18.67;16.00;;;;;12.16;100.00;101523.03;5052319;28;45427;-81
2023/04/02 10:10:54;;;;;;;;;21.33;20.67;;;;;12.21;100.00;101523.34;5065829;28;45243;-81
2023/04/02 10:13:28;;;;;;;;;26.33;24.33;;;;;12.19;100.00;101519.19;5081281;28;45954;-82
2023/04/02 10:16:09;;;;;;;;;28.00;26.00;;;;;12.24;100.00;101524.84;5081906;28;45583;-82
2023/04/02 10:18:37;;;;;;;;;22.67;20.00;;;;;12.29;100.00;101538.53;5062245;28;45489;-82
2023/04/02 10:21:04;;;;;;;;;21.33;21.00;;;;;12.28;100.00;101544.03;5063475;28;47400;-81
2023/04/02 10:23:30;;;;;;;;;19.00;19.00;;;;;12.24;100.00;101540.84;5076794;27;48519;-80
2023/04/02 10:26:19;;;;;;;;;20.00;19.00;;;;;12.33;100.00;101555.84;5062855;28;45358;-79
2023/04/02 10:29:04;;;;;;;;;24.00;23.00;;;;;12.39;100.00;101558.84;5062438;28;45407;-79
2023/04/02 10:31:56;;;;;;;;;24.00;23.00;;;;;12.40;100.00;101560.50;5069517;28;45793;-79
2023/04/02 10:34:47;;;;;;;;;33.33;32.00;;;;;12.39;100.00;101558.84;5071746;28;45604;-82
2023/04/02 10:37:42;;;;;;;;;23.67;21.67;;;;;12.33;100.00;101549.69;5055826;28;45761;-81
2023/04/02 10:40:29;;;;;;;;;20.00;16.67;;;;;12.39;100.00;101557.00;5080872;28;45554;-81
2023/04/02 10:43:23;;;;;;;;;20.67;19.67;;;;;12.41;100.00;101564.84;5081123;28;45548;-82
2023/04/02 10:45:53;;;;;;;;;23.00;21.33;;;;;12.04;100.00;101524.31;5071758;28;45613;-81
2023/04/02 10:48:36;;;;;;;;;20.67;19.67;;;;;12.37;100.00;101575.03;5081109;28;45650;-83
2023/04/02 10:51:15;;;;;;;;;20.67;20.67;;;;;12.40;100.00;101579.19;5080421;28;45311;-80
2023/04/02 10:53:52;;;;;;;;;19.67;16.67;;;;;12.37;100.00;101577.69;5080440;28;45340;-80
2023/04/02 10:56:18;;;;;;;;;21.67;20.33;;;;;12.40;100.00;101584.50;5061940;28;46159;-80
2023/04/02 10:59:03;;;;;;;;;22.67;16.00;;;;;12.32;100.00;101588.00;5080333;28;47557;-82
2023/04/02 11:01:30;;;;;;;;;22.67;22.33;;;;;12.33;100.00;101593.16;5062804;28;45410;-80
2023/04/02 11:04:05;;;;;;;;;22.33;22.33;;;;;12.28;100.00;101582.19;5079324;28;47265;-81
2023/04/02 11:06:43;;;;;;;;;21.33;19.00;;;;;12.32;100.00;101601.31;5051669;28;47128;-81
2023/04/02 11:09:22;;;;;;;;;25.67;24.00;;;;;12.27;100.00;101599.16;5074854;28;45338;-81
2023/04/02 11:11:51;;;;;;;;;36.67;31.33;;;;;12.23;100.00;101597.81;5057816;28;45458;-81
2023/04/02 11:14:24;;;;;;;;;46.50;38.00;;;;;12.27;100.00;101604.47;5077584;28;45421;-81
2023/04/02 11:16:52;;;;;;;;;30.00;30.00;;;;;12.38;100.00;101616.66;5079029;28;45327;-83
2023/04/02 11:19:17;;;;;;;;;17.00;17.00;;;;;12.40;100.00;101613.84;5079184;28;45516;-82
2023/04/02 11:21:48;;;;;;;;;34.00;31.33;;;;;12.40;100.00;101609.34;5066282;27;45412;-82
2023/04/02 11:24:31;;;;;;;;;22.33;21.33;;;;;12.42;100.00;101606.50;5075741;28;47165;-81
2023/04/02 11:27:09;;;;;;;;;26.00;21.33;;;;;12.42;100.00;101604.66;5068268;28;45917;-82
2023/04/02 11:29:40;;;;;;;;;18.00;17.67;;;;;12.39;100.00;101607.66;5079559;28;45427;-82
2023/04/02 11:32:11;;;;;;;;;21.33;18.33;;;;;12.45;100.00;101612.34;5079626;28;45394;-81
2023/04/02 11:34:39;;;;;;;;;22.00;19.67;;;;;12.42;100.00;101622.50;5070642;28;45446;-82